sensor_id;sensor_type;location;lat;lon;timestamp;pressure;altitude;pressure_sealevel;temperature;humidity
69630;BME280;56857;52.212;5.496;2023-03-16T00:01:41;101838.47;;;4.67;100.00
69630;BME280;56857;52.212;5.496;2023-03-16T00:04:07;101834.88;;;4.68;100.00
69630;BME280;56857;52.212;5.496;2023-03-16T00:06:32;101834.06;;;4.67;100.00
69630;BME280;56857;52.212;5.496;2023-03-16T00:08:57;101836.69;;;4.67;100.00
69630;BME280;56857;52.212;5.496;2023-03-16T00:11:24;101839.31;;;4.67;100.00
69630;BME280;56857;52.212;5.496;2023-03-16T00:13:49;101836.69;;;4.67;100.00
69630;BME280;56857;52.212;5.496;2023-03-16T00:16:14;101828.81;;;4.67;100.00
69630;BME280;56857;52.212;5.496;2023-03-16T00:18:43;101819.34;;;4.64;100.00
69630;BME280;56857;52.212;5.496;2023-03-16T00:21:08;101821.13;;;4.64;100.00
69630;BME280;56857;52.212;5.496;2023-03-16T00:23:34;101810.63;;;4.64;100.00
69630;BME280;56857;52.212;5.496;2023-03-16T00:26:03;101814.19;;;4.63;100.00
69630;BME280;56857;52.212;5.496;2023-03-16T00:28:30;101810.72;;;4.62;100.00
69630;BME280;56857;52.212;5.496;2023-03-16T00:30:56;101804.63;;;4.62;100.00
69630;BME280;56857;52.212;5.496;2023-03-16T00:33:21;101802.00;;;4.62;100.00
69630;BME280;56857;52.212;5.496;2023-03-16T00:35:47;101790.97;;;4.57;100.00
69630;BME280;56857;52.212;5.496;2023-03-16T00:38:13;101793.72;;;4.55;100.00
69630;BME280;56857;52.212;5.496;2023-03-16T00:40:38;101788.34;;;4.57;100.00
69630;BME280;56857;52.212;5.496;2023-03-16T00:43:03;101788.34;;;4.57;100.00
69630;BME280;56857;52.212;5.496;2023-03-16T00:45:29;101779.75;;;4.55;100.00
69630;BME280;56857;52.212;5.496;2023-03-16T00:47:54;101784.19;;;4.54;100.00
69630;BME280;56857;52.212;5.496;2023-03-16T00:50:19;101788.56;;;4.54;100.00
69630;BME280;56857;52.212;5.496;2023-03-16T00:52:44;101783.44;;;4.52;100.00
69630;BME280;56857;52.212;5.496;2023-03-16T00:55:10;101780.81;;;4.52;100.00
69630;BME280;56857;52.212;5.496;2023-03-16T00:57:35;101781.75;;;4.51;100.00
69630;BME280;56857;52.212;5.496;2023-03-16T01:00:00;101781.75;;;4.51;100.00
69630;BME280;56857;52.212;5.496;2023-03-16T01:02:26;101780.81;;;4.52;100.00
69630;BME280;56857;52.212;5.496;2023-03-16T01:04:52;101779.97;;;4.52;100.00
69630;BME280;56857;52.212;5.496;2023-03-16T01:07:18;101777.44;;;4.50;100.00
69630;BME280;56857;52.212;5.496;2023-03-16T01:09:43;101768.63;;;4.51;100.00
69630;BME280;56857;52.212;5.496;2023-03-16T01:12:12;101762.44;;;4.52;100.00
69630;BME280;56857;52.212;5.496;2023-03-16T01:14:38;101751.94;;;4.52;100.00
69630;BME280;56857;52.212;5.496;2023-03-16T01:17:04;101747.50;;;4.53;100.00
69630;BME280;56857;52.212;5.496;2023-03-16T01:19:30;101750.13;;;4.53;100.00
69630;BME280;56857;52.212;5.496;2023-03-16T01:21:55;101741.31;;;4.54;100.00
69630;BME280;56857;52.212;5.496;2023-03-16T01:24:21;101750.03;;;4.54;100.00
69630;BME280;56857;52.212;5.496;2023-03-16T01:26:46;101745.72;;;4.53;100.00
69630;BME280;56857;52.212;5.496;2023-03-16T01:29:11;101736.03;;;4.54;100.00
69630;BME280;56857;52.212;5.496;2023-03-16T01:31:38;101736.03;;;4.54;100.00
69630;BME280;56857;52.212;5.496;2023-03-16T01:34:04;101728.16;;;4.54;100.00
69630;BME280;56857;52.212;5.496;2023-03-16T01:36:29;101726.50;;;4.53;100.00
69630;BME280;56857;52.212;5.496;2023-03-16T01:38:55;101732.59;;;4.53;100.00
69630;BME280;56857;52.212;5.496;2023-03-16T01:41:20;101732.59;;;4.53;100.00
69630;BME280;56857;52.212;5.496;2023-03-16T01:43:45;101721.25;;;4.53;100.00
69630;BME280;56857;52.212;5.496;2023-03-16T01:46:20;101709.91;;;4.52;100.00
69630;BME280;56857;52.212;5.496;2023-03-16T01:48:50;101710.75;;;4.53;100.00
69630;BME280;56857;52.212;5.496;2023-03-16T01:51:22;101704.66;;;4.52;100.00
69630;BME280;56857;52.212;5.496;2023-03-16T01:53:50;101695.00;;;4.53;100.00
69630;BME280;56857;52.212;5.496;2023-03-16T01:56:21;101693.19;;;4.53;100.00
69630;BME280;56857;52.212;5.496;2023-03-16T01:58:51;101698.34;;;4.55;100.00
69630;BME280;56857;52.212;5.496;2023-03-16T02:01:16;101687.84;;;4.55;100.00
69630;BME280;56857;52.212;5.496;2023-03-16T02:03:43;101689.66;;;4.54;100.00
69630;BME280;56857;52.212;5.496;2023-03-16T02:06:15;101683.53;;;4.54;100.00
69630;BME280;56857;52.212;5.496;2023-03-16T02:08:42;101686.06;;;4.55;100.00
69630;BME280;56857;52.212;5.496;2023-03-16T02:11:08;101689.44;;;4.57;100.00
69630;BME280;56857;52.212;5.496;2023-03-16T02:13:34;101691.09;;;4.58;100.00
69630;BME280;56857;52.212;5.496;2023-03-16T02:16:00;101678.72;;;4.60;100.00
69630;BME280;56857;52.212;5.496;2023-03-16T02:18:25;101683.84;;;4.62;100.00
69630;BME280;56857;52.212;5.496;2023-03-16T02:21:16;101678.59;;;4.62;100.00
69630;BME280;56857;52.212;5.496;2023-03-16T02:23:44;101677.75;;;4.61;100.00
69630;BME280;56857;52.212;5.496;2023-03-16T02:26:20;101675.22;;;4.60;100.00
69630;BME280;56857;52.212;5.496;2023-03-16T02:31:42;101675.00;;;4.63;100.00
69630;BME280;56857;52.212;5.496;2023-03-16T02:34:09;101670.63;;;4.63;100.00
69630;BME280;56857;52.212;5.496;2023-03-16T02:36:36;101663.78;;;4.61;100.00
69630;BME280;56857;52.212;5.496;2023-03-16T02:39:04;101667.34;;;4.60;100.00
69630;BME280;56857;52.212;5.496;2023-03-16T02:41:29;101672.72;;;4.58;100.00
69630;BME280;56857;52.212;5.496;2023-03-16T02:44:12;101677.13;;;4.58;100.00
69630;BME280;56857;52.212;5.496;2023-03-16T02:46:40;101670.94;;;4.59;100.00
69630;BME280;56857;52.212;5.496;2023-03-16T02:49:11;101674.38;;;4.59;100.00
69630;BME280;56857;52.212;5.496;2023-03-16T02:51:38;101658.75;;;4.58;100.00
69630;BME280;56857;52.212;5.496;2023-03-16T02:54:04;101663.16;;;4.57;100.00
69630;BME280;56857;52.212;5.496;2023-03-16T02:56:29;101663.28;;;4.56;100.00
69630;BME280;56857;52.212;5.496;2023-03-16T02:58:55;101673.03;;;4.54;100.00
69630;BME280;56857;52.212;5.496;2023-03-16T03:01:20;101668.75;;;4.53;100.00
69630;BME280;56857;52.212;5.496;2023-03-16T03:03:45;101671.50;;;4.51;100.00
69630;BME280;56857;52.212;5.496;2023-03-16T03:06:11;101667.28;;;4.49;100.00
69630;BME280;56857;52.212;5.496;2023-03-16T03:08:36;101668.25;;;4.48;100.00
69630;BME280;56857;52.212;5.496;2023-03-16T03:11:02;101663.09;;;4.46;100.00
69630;BME280;56857;52.212;5.496;2023-03-16T03:13:27;101661.41;;;4.45;100.00
69630;BME280;56857;52.212;5.496;2023-03-16T03:15:52;101657.00;;;4.46;100.00
69630;BME280;56857;52.212;5.496;2023-03-16T03:18:18;101650.09;;;4.45;100.00
69630;BME280;56857;52.212;5.496;2023-03-16T03:20:43;101651.00;;;4.44;100.00
69630;BME280;56857;52.212;5.496;2023-03-16T03:23:09;101652.81;;;4.43;100.00
69630;BME280;56857;52.212;5.496;2023-03-16T03:25:34;101655.44;;;4.43;100.00
69630;BME280;56857;52.212;5.496;2023-03-16T03:28:01;101647.56;;;4.43;100.00
69630;BME280;56857;52.212;5.496;2023-03-16T03:30:27;101649.44;;;4.41;100.00
69630;BME280;56857;52.212;5.496;2023-03-16T03:32:53;101646.94;;;4.39;100.00
69630;BME280;56857;52.212;5.496;2023-03-16T03:35:19;101640.03;;;4.38;100.00
69630;BME280;56857;52.212;5.496;2023-03-16T03:37:44;101628.66;;;4.38;100.00
69630;BME280;56857;52.212;5.496;2023-03-16T03:40:11;101632.25;;;4.37;100.00
69630;BME280;56857;52.212;5.496;2023-03-16T03:42:39;101627.94;;;4.36;100.00
69630;BME280;56857;52.212;5.496;2023-03-16T03:45:05;101622.69;;;4.36;100.00
69630;BME280;56857;52.212;5.496;2023-03-16T03:47:30;101618.28;;;4.36;100.00
69630;BME280;56857;52.212;5.496;2023-03-16T03:49:56;101616.63;;;4.35;100.00
69630;BME280;56857;52.212;5.496;2023-03-16T03:52:21;101607.88;;;4.35;100.00
69630;BME280;56857;52.212;5.496;2023-03-16T03:54:46;101615.25;;;4.30;100.00
69630;BME280;56857;52.212;5.496;2023-03-16T03:57:12;101607.25;;;4.31;100.00
69630;BME280;56857;52.212;5.496;2023-03-16T03:59:37;101609.06;;;4.31;100.00
69630;BME280;56857;52.212;5.496;2023-03-16T04:02:03;101603.94;;;4.29;100.00
69630;BME280;56857;52.212;5.496;2023-03-16T04:04:28;101606.56;;;4.29;100.00
69630;BME280;56857;52.212;5.496;2023-03-16T04:06:53;101613.59;;;4.29;100.00
69630;BME280;56857;52.212;5.496;2023-03-16T04:09:18;101612.72;;;4.28;100.00
69630;BME280;56857;52.212;5.496;2023-03-16T04:11:44;101600.34;;;4.30;100.00
69630;BME280;56857;52.212;5.496;2023-03-16T04:14:09;101597.84;;;4.29;100.00
69630;BME280;56857;52.212;5.496;2023-03-16T04:16:34;101600.56;;;4.27;100.00
69630;BME280;56857;52.212;5.496;2023-03-16T04:19:00;101590.19;;;4.26;100.00
69630;BME280;56857;52.212;5.496;2023-03-16T04:21:25;101596.38;;;4.25;100.00
69630;BME280;56857;52.212;5.496;2023-03-16T04:23:50;101591.13;;;4.25;100.00
69630;BME280;56857;52.212;5.496;2023-03-16T04:26:16;101590.41;;;4.23;100.00
69630;BME280;56857;52.212;5.496;2023-03-16T04:28:41;101592.06;;;4.24;100.00
69630;BME280;56857;52.212;5.496;2023-03-16T04:31:08;101592.19;;;4.22;100.00
69630;BME280;56857;52.212;5.496;2023-03-16T04:33:34;101593.97;;;4.22;100.00
69630;BME280;56857;52.212;5.496;2023-03-16T04:36:00;101597.53;;;4.21;100.00
69630;BME280;56857;52.212;5.496;2023-03-16T04:38:26;101581.81;;;4.21;100.00
69630;BME280;56857;52.212;5.496;2023-03-16T04:40:51;101588.84;;;4.20;100.00
69630;BME280;56857;52.212;5.496;2023-03-16T04:43:16;101576.78;;;4.17;100.00
69630;BME280;56857;52.212;5.496;2023-03-16T04:45:42;101589.78;;;4.19;100.00
69630;BME280;56857;52.212;5.496;2023-03-16T04:48:07;101581.19;;;4.17;100.00
69630;BME280;56857;52.212;5.496;2023-03-16T04:50:33;101588.94;;;4.18;100.00
69630;BME280;56857;52.212;5.496;2023-03-16T04:52:58;101578.56;;;4.17;100.00
69630;BME280;56857;52.212;5.496;2023-03-16T04:55:23;101570.69;;;4.17;100.00
69630;BME280;56857;52.212;5.496;2023-03-16T04:57:49;101583.81;;;4.17;100.00
69630;BME280;56857;52.212;5.496;2023-03-16T05:00:14;101593.34;;;4.18;100.00
69630;BME280;56857;52.212;5.496;2023-03-16T05:02:40;101584.75;;;4.16;100.00
69630;BME280;56857;52.212;5.496;2023-03-16T05:05:05;101578.56;;;4.17;100.00
69630;BME280;56857;52.212;5.496;2023-03-16T05:07:31;101581.28;;;4.15;100.00
69630;BME280;56857;52.212;5.496;2023-03-16T05:09:56;101577.94;;;4.13;100.00
69630;BME280;56857;52.212;5.496;2023-03-16T05:12:21;101577.94;;;4.13;100.00
69630;BME280;56857;52.212;5.496;2023-03-16T05:14:47;101577.81;;;4.15;100.00
69630;BME280;56857;52.212;5.496;2023-03-16T05:17:12;101582.25;;;4.14;100.00
69630;BME280;56857;52.212;5.496;2023-03-16T05:19:37;101575.09;;;4.16;100.00
69630;BME280;56857;52.212;5.496;2023-03-16T05:22:03;101573.41;;;4.15;100.00
69630;BME280;56857;52.212;5.496;2023-03-16T05:24:28;101575.19;;;4.15;100.00
69630;BME280;56857;52.212;5.496;2023-03-16T05:26:53;101570.69;;;4.17;100.00
69630;BME280;56857;52.212;5.496;2023-03-16T05:29:19;101565.22;;;4.20;100.00
69630;BME280;56857;52.212;5.496;2023-03-16T05:31:44;101557.34;;;4.20;100.00
69630;BME280;56857;52.212;5.496;2023-03-16T05:34:09;101565.00;;;4.23;100.00
69630;BME280;56857;52.212;5.496;2023-03-16T05:36:34;101565.84;;;4.24;100.00
69630;BME280;56857;52.212;5.496;2023-03-16T05:39:00;101567.41;;;4.26;100.00
69630;BME280;56857;52.212;5.496;2023-03-16T05:41:25;101568.13;;;4.28;100.00
69630;BME280;56857;52.212;5.496;2023-03-16T05:43:50;101563.09;;;4.25;100.00
69630;BME280;56857;52.212;5.496;2023-03-16T05:46:16;101560.38;;;4.27;100.00
69630;BME280;56857;52.212;5.496;2023-03-16T05:48:41;101560.38;;;4.27;100.00
69630;BME280;56857;52.212;5.496;2023-03-16T05:51:06;101558.47;;;4.29;100.00
69630;BME280;56857;52.212;5.496;2023-03-16T05:53:32;101557.53;;;4.30;100.00
69630;BME280;56857;52.212;5.496;2023-03-16T05:55:57;101555.00;;;4.28;100.00
69630;BME280;56857;52.212;5.496;2023-03-16T05:58:23;101548.06;;;4.27;100.00
69630;BME280;56857;52.212;5.496;2023-03-16T06:00:48;101548.81;;;4.29;100.00
69630;BME280;56857;52.212;5.496;2023-03-16T06:03:13;101554.91;;;4.30;100.00
69630;BME280;56857;52.212;5.496;2023-03-16T06:05:38;101546.19;;;4.29;100.00
69630;BME280;56857;52.212;5.496;2023-03-16T06:08:04;101545.22;;;4.30;100.00
69630;BME280;56857;52.212;5.496;2023-03-16T06:10:29;101537.47;;;4.29;100.00
69630;BME280;56857;52.212;5.496;2023-03-16T06:12:54;101535.56;;;4.31;100.00
69630;BME280;56857;52.212;5.496;2023-03-16T06:15:20;101538.19;;;4.31;100.00
69630;BME280;56857;52.212;5.496;2023-03-16T06:17:45;101538.41;;;4.28;100.00
69630;BME280;56857;52.212;5.496;2023-03-16T06:20:11;101540.94;;;4.29;100.00
69630;BME280;56857;52.212;5.496;2023-03-16T06:22:38;101544.41;;;4.30;100.00
69630;BME280;56857;52.212;5.496;2023-03-16T06:25:04;101538.09;;;4.32;100.00
69630;BME280;56857;52.212;5.496;2023-03-16T06:27:30;101536.31;;;4.33;100.00
69630;BME280;56857;52.212;5.496;2023-03-16T06:29:55;101533.56;;;4.34;100.00
69630;BME280;56857;52.212;5.496;2023-03-16T06:32:21;101523.88;;;4.35;100.00
69630;BME280;56857;52.212;5.496;2023-03-16T06:34:47;101526.41;;;4.36;100.00
69630;BME280;56857;52.212;5.496;2023-03-16T06:37:13;101530.69;;;4.37;100.00
69630;BME280;56857;52.212;5.496;2023-03-16T06:39:38;101533.31;;;4.37;100.00
69630;BME280;56857;52.212;5.496;2023-03-16T06:42:04;101536.69;;;4.39;100.00
69630;BME280;56857;52.212;5.496;2023-03-16T06:44:29;101527.97;;;4.39;100.00
69630;BME280;56857;52.212;5.496;2023-03-16T06:46:55;101535.72;;;4.40;100.00
69630;BME280;56857;52.212;5.496;2023-03-16T06:49:20;101525.97;;;4.43;100.00
69630;BME280;56857;52.212;5.496;2023-03-16T06:51:45;101520.50;;;4.46;100.00
69630;BME280;56857;52.212;5.496;2023-03-16T06:54:11;101523.84;;;4.48;100.00
69630;BME280;56857;52.212;5.496;2023-03-16T06:56:36;101521.22;;;4.48;100.00
69630;BME280;56857;52.212;5.496;2023-03-16T06:59:01;101518.47;;;4.49;100.00
69630;BME280;56857;52.212;5.496;2023-03-16T07:01:27;101517.63;;;4.49;100.00
69630;BME280;56857;52.212;5.496;2023-03-16T07:03:52;101518.47;;;4.49;100.00
69630;BME280;56857;52.212;5.496;2023-03-16T07:06:17;101515.63;;;4.52;100.00
69630;BME280;56857;52.212;5.496;2023-03-16T07:08:43;101509.31;;;4.55;100.00
69630;BME280;56857;52.212;5.496;2023-03-16T07:11:08;101511.72;;;4.58;100.00
69630;BME280;56857;52.212;5.496;2023-03-16T07:13:33;101516.59;;;4.62;100.00
69630;BME280;56857;52.212;5.496;2023-03-16T07:15:59;101512.09;;;4.64;100.00
69630;BME280;56857;52.212;5.496;2023-03-16T07:18:24;101513.53;;;4.69;100.00
69630;BME280;56857;52.212;5.496;2023-03-16T07:20:49;101512.56;;;4.70;100.00
69630;BME280;56857;52.212;5.496;2023-03-16T07:23:16;101516.75;;;4.72;100.00
69630;BME280;56857;52.212;5.496;2023-03-16T07:25:42;101514.03;;;4.74;100.00
69630;BME280;56857;52.212;5.496;2023-03-16T07:28:07;101524.53;;;4.74;100.00
69630;BME280;56857;52.212;5.496;2023-03-16T07:30:32;101519.38;;;4.72;100.00
69630;BME280;56857;52.212;5.496;2023-03-16T07:32:57;101520.13;;;4.74;100.00
69630;BME280;56857;52.212;5.496;2023-03-16T07:35:23;101519.28;;;4.74;100.00
69630;BME280;56857;52.212;5.496;2023-03-16T07:37:51;101509.72;;;4.73;100.00
69630;BME280;56857;52.212;5.496;2023-03-16T07:40:18;101510.66;;;4.72;100.00
69630;BME280;56857;52.212;5.496;2023-03-16T07:42:43;101522.97;;;4.71;100.00
69630;BME280;56857;52.212;5.496;2023-03-16T07:45:10;101519.50;;;4.71;100.00
69630;BME280;56857;52.212;5.496;2023-03-16T07:47:39;101516.88;;;4.71;100.00
69630;BME280;56857;52.212;5.496;2023-03-16T07:50:04;101517.13;;;4.68;100.00
69630;BME280;56857;52.212;5.496;2023-03-16T07:52:30;101518.06;;;4.67;100.00
69630;BME280;56857;52.212;5.496;2023-03-16T07:54:55;101510.28;;;4.65;100.00
69630;BME280;56857;52.212;5.496;2023-03-16T07:57:21;101515.53;;;4.65;100.00
69630;BME280;56857;52.212;5.496;2023-03-16T07:59:46;101515.53;;;4.65;100.00
69630;BME280;56857;52.212;5.496;2023-03-16T08:02:15;101516.38;;;4.65;100.00
69630;BME280;56857;52.212;5.496;2023-03-16T08:04:40;101521.41;;;4.69;100.00
69630;BME280;56857;52.212;5.496;2023-03-16T08:07:06;101516.06;;;4.70;100.00
69630;BME280;56857;52.212;5.496;2023-03-16T08:09:31;101522.13;;;4.71;100.00
69630;BME280;56857;52.212;5.496;2023-03-16T08:11:56;101512.34;;;4.73;100.00
69630;BME280;56857;52.212;5.496;2023-03-16T08:14:22;101506.97;;;4.74;100.00
69630;BME280;56857;52.212;5.496;2023-03-16T08:16:48;101508.31;;;4.80;100.00
69630;BME280;56857;52.212;5.496;2023-03-16T08:19:14;101504.41;;;4.85;100.00
69630;BME280;56857;52.212;5.496;2023-03-16T08:21:39;101500.44;;;4.91;100.00
69630;BME280;56857;52.212;5.496;2023-03-16T08:24:05;101496.41;;;4.98;100.00
69630;BME280;56857;52.212;5.496;2023-03-16T08:26:30;101503.56;;;5.07;100.00
69630;BME280;56857;52.212;5.496;2023-03-16T08:28:55;101495.13;;;5.15;100.00
69630;BME280;56857;52.212;5.496;2023-03-16T08:31:22;101496.44;;;5.21;100.00
69630;BME280;56857;52.212;5.496;2023-03-16T08:33:50;101480.53;;;5.22;100.00
69630;BME280;56857;52.212;5.496;2023-03-16T08:36:17;101479.47;;;5.25;100.00
69630;BME280;56857;52.212;5.496;2023-03-16T08:38:44;101483.53;;;5.29;100.00
69630;BME280;56857;52.212;5.496;2023-03-16T08:41:09;101479.00;;;5.31;100.00
69630;BME280;56857;52.212;5.496;2023-03-16T08:43:35;101477.09;;;5.33;100.00
69630;BME280;56857;52.212;5.496;2023-03-16T08:46:00;101478.53;;;5.37;100.00
69630;BME280;56857;52.212;5.496;2023-03-16T08:48:26;101486.16;;;5.40;100.00
69630;BME280;56857;52.212;5.496;2023-03-16T08:50:52;101483.31;;;5.43;100.00
69630;BME280;56857;52.212;5.496;2023-03-16T08:53:17;101479.47;;;5.47;100.00
69630;BME280;56857;52.212;5.496;2023-03-16T08:55:42;101481.63;;;5.53;100.00
69630;BME280;56857;52.212;5.496;2023-03-16T08:58:08;101483.03;;;5.57;100.00
69630;BME280;56857;52.212;5.496;2023-03-16T09:00:34;101488.78;;;5.63;100.00
69630;BME280;56857;52.212;5.496;2023-03-16T09:02:59;101486.63;;;5.68;100.00
69630;BME280;56857;52.212;5.496;2023-03-16T09:05:25;101494.28;;;5.71;100.00
69630;BME280;56857;52.212;5.496;2023-03-16T09:07:51;101488.63;;;5.75;100.00
69630;BME280;56857;52.212;5.496;2023-03-16T09:10:16;101484.69;;;5.81;100.00
69630;BME280;56857;52.212;5.496;2023-03-16T09:12:42;101486.84;;;5.87;100.00
69630;BME280;56857;52.212;5.496;2023-03-16T09:15:09;101490.81;;;5.93;100.00
69630;BME280;56857;52.212;5.496;2023-03-16T09:17:35;101489.59;;;5.97;100.00
69630;BME280;56857;52.212;5.496;2023-03-16T09:20:01;101493.63;;;6.01;100.00
69630;BME280;56857;52.212;5.496;2023-03-16T09:22:27;101480.97;;;6.06;100.00
69630;BME280;56857;52.212;5.496;2023-03-16T09:24:52;101482.63;;;6.07;100.00
69630;BME280;56857;52.212;5.496;2023-03-16T09:27:18;101478.91;;;6.10;100.00
69630;BME280;56857;52.212;5.496;2023-03-16T09:29:43;101472.44;;;6.14;100.00
69630;BME280;56857;52.212;5.496;2023-03-16T09:32:09;101475.63;;;6.17;100.00
69630;BME280;56857;52.212;5.496;2023-03-16T09:34:34;101479.25;;;6.16;100.00
69630;BME280;56857;52.212;5.496;2023-03-16T09:36:59;101472.31;;;6.15;100.00
69630;BME280;56857;52.212;5.496;2023-03-16T09:39:24;101468.84;;;6.15;100.00
69630;BME280;56857;52.212;5.496;2023-03-16T09:47:14;101467.56;;;6.09;100.00
69630;BME280;56857;52.212;5.496;2023-03-16T09:49:45;101474.47;;;6.10;100.00
69630;BME280;56857;52.212;5.496;2023-03-16T09:54:54;101470.53;;;6.04;100.00
69630;BME280;56857;52.212;5.496;2023-03-16T09:57:32;101461.56;;;6.07;100.00
69630;BME280;56857;52.212;5.496;2023-03-16T10:02:49;101465.84;;;6.19;100.00
69630;BME280;56857;52.212;5.496;2023-03-16T10:05:21;101466.31;;;6.24;100.00
69630;BME280;56857;52.212;5.496;2023-03-16T10:13:23;101433.94;;;6.55;100.00
69630;BME280;56857;52.212;5.496;2023-03-16T10:15:53;101440.09;;;6.65;100.00
69630;BME280;56857;52.212;5.496;2023-03-16T10:18:25;101446.75;;;6.90;100.00
69630;BME280;56857;52.212;5.496;2023-03-16T10:20:52;101443.16;;;7.22;100.00
69630;BME280;56857;52.212;5.496;2023-03-16T10:23:24;101439.78;;;7.40;100.00
69630;BME280;56857;52.212;5.496;2023-03-16T10:25:51;101431.34;;;7.56;100.00
69630;BME280;56857;52.212;5.496;2023-03-16T10:28:25;101433.72;;;7.69;100.00
69630;BME280;56857;52.212;5.496;2023-03-16T10:30:53;101430.88;;;7.82;100.00
69630;BME280;56857;52.212;5.496;2023-03-16T10:33:23;101431.53;;;7.94;100.00
69630;BME280;56857;52.212;5.496;2023-03-16T10:41:02;101429.75;;;8.52;100.00
69630;BME280;56857;52.212;5.496;2023-03-16T10:43:27;101432.66;;;8.59;100.00
69630;BME280;56857;52.212;5.496;2023-03-16T10:45:58;101424.03;;;8.76;100.00
69630;BME280;56857;52.212;5.496;2023-03-16T10:48:31;101423.28;;;8.84;100.00
69630;BME280;56857;52.212;5.496;2023-03-16T10:50:56;101415.88;;;8.97;100.00
69630;BME280;56857;52.212;5.496;2023-03-16T10:53:25;101406.50;;;9.13;100.00
69630;BME280;56857;52.212;5.496;2023-03-16T10:56:08;101404.28;;;9.36;100.00
69630;BME280;56857;52.212;5.496;2023-03-16T10:58:41;101418.69;;;9.51;100.00
69630;BME280;56857;52.212;5.496;2023-03-16T11:01:24;101414.19;;;9.79;100.00
69630;BME280;56857;52.212;5.496;2023-03-16T11:03:51;101403.38;;;9.90;100.00
69630;BME280;56857;52.212;5.496;2023-03-16T11:06:26;101397.50;;;9.96;100.00
69630;BME280;56857;52.212;5.496;2023-03-16T11:08:52;101394.97;;;9.95;100.00
69630;BME280;56857;52.212;5.496;2023-03-16T11:11:29;101392.56;;;9.84;100.00
69630;BME280;56857;52.212;5.496;2023-03-16T11:13:58;101399.97;;;9.80;100.00
69630;BME280;56857;52.212;5.496;2023-03-16T11:16:35;101379.72;;;9.71;100.00
69630;BME280;56857;52.212;5.496;2023-03-16T11:19:34;101393.38;;;9.66;100.00
69630;BME280;56857;52.212;5.496;2023-03-16T11:22:05;101384.50;;;9.58;100.00
69630;BME280;56857;52.212;5.496;2023-03-16T11:24:49;101382.47;;;9.51;100.00
69630;BME280;56857;52.212;5.496;2023-03-16T11:27:21;101391.00;;;9.45;100.00
69630;BME280;56857;52.212;5.496;2023-03-16T11:30:08;101376.00;;;9.36;100.00
69630;BME280;56857;52.212;5.496;2023-03-16T11:32:46;101361.41;;;9.32;100.00
69630;BME280;56857;52.212;5.496;2023-03-16T11:37:50;101359.53;;;9.24;100.00
69630;BME280;56857;52.212;5.496;2023-03-16T11:48:41;101351.06;;;9.21;100.00
69630;BME280;56857;52.212;5.496;2023-03-16T11:56:42;101348.34;;;9.31;100.00
69630;BME280;56857;52.212;5.496;2023-03-16T12:07:32;101344.81;;;9.58;100.00
69630;BME280;56857;52.212;5.496;2023-03-16T12:10:06;101332.78;;;9.63;100.00
69630;BME280;56857;52.212;5.496;2023-03-16T12:15:40;101321.06;;;9.84;100.00
69630;BME280;56857;52.212;5.496;2023-03-16T12:18:14;101321.19;;;10.00;100.00
69630;BME280;56857;52.212;5.496;2023-03-16T12:20:46;101306.94;;;10.19;100.00
69630;BME280;56857;52.212;5.496;2023-03-16T12:23:18;101313.88;;;10.38;100.00
69630;BME280;56857;52.212;5.496;2023-03-16T12:25:45;101302.88;;;10.59;100.00
69630;BME280;56857;52.212;5.496;2023-03-16T12:28:29;101306.66;;;10.90;100.00
69630;BME280;56857;52.212;5.496;2023-03-16T12:31:03;101305.31;;;11.29;100.00
69630;BME280;56857;52.212;5.496;2023-03-16T12:38:57;101282.81;;;11.90;100.00
69630;BME280;56857;52.212;5.496;2023-03-16T12:44:38;101287.44;;;12.13;100.00
69630;BME280;56857;52.212;5.496;2023-03-16T12:47:45;101282.50;;;12.57;100.00
69630;BME280;56857;52.212;5.496;2023-03-16T12:50:17;101267.75;;;12.86;100.00
69630;BME280;56857;52.212;5.496;2023-03-16T12:52:48;101266.66;;;12.72;100.00
69630;BME280;56857;52.212;5.496;2023-03-16T12:55:16;101271.38;;;12.53;100.00
69630;BME280;56857;52.212;5.496;2023-03-16T12:57:44;101262.16;;;12.25;100.00
69630;BME280;56857;52.212;5.496;2023-03-16T13:00:12;101263.34;;;12.06;100.00
69630;BME280;56857;52.212;5.496;2023-03-16T13:02:44;101254.22;;;12.00;100.00
69630;BME280;56857;52.212;5.496;2023-03-16T13:05:16;101245.19;;;12.26;100.00
69630;BME280;56857;52.212;5.496;2023-03-16T13:07:48;101238.19;;;12.81;100.00
69630;BME280;56857;52.212;5.496;2023-03-16T13:10:14;101220.13;;;12.99;94.75
69630;BME280;56857;52.212;5.496;2023-03-16T13:12:41;101216.41;;;13.08;94.38
69630;BME280;56857;52.212;5.496;2023-03-16T13:15:22;101217.59;;;13.06;97.95
69630;BME280;56857;52.212;5.496;2023-03-16T13:20:36;101211.41;;;12.82;94.60
69630;BME280;56857;52.212;5.496;2023-03-16T13:25:42;101197.50;;;12.72;92.07
69630;BME280;56857;52.212;5.496;2023-03-16T13:28:13;101196.88;;;12.62;89.43
69630;BME280;56857;52.212;5.496;2023-03-16T13:30:48;101196.06;;;12.61;92.14
69630;BME280;56857;52.212;5.496;2023-03-16T13:33:26;101188.59;;;12.57;91.74
69630;BME280;56857;52.212;5.496;2023-03-16T13:35:52;101191.13;;;12.50;90.63
69630;BME280;56857;52.212;5.496;2023-03-16T13:38:20;101189.97;;;12.44;91.63
69630;BME280;56857;52.212;5.496;2023-03-16T13:40:48;101195.16;;;12.38;95.56
69630;BME280;56857;52.212;5.496;2023-03-16T13:43:15;101188.22;;;12.28;94.09
69630;BME280;56857;52.212;5.496;2023-03-16T13:45:42;101182.75;;;12.22;94.82
69630;BME280;56857;52.212;5.496;2023-03-16T13:48:14;101182.94;;;12.20;94.05
69630;BME280;56857;52.212;5.496;2023-03-16T13:50:40;101183.59;;;12.22;96.81
69630;BME280;56857;52.212;5.496;2023-03-16T13:53:30;101171.09;;;12.31;98.37
69630;BME280;56857;52.212;5.496;2023-03-16T13:55:56;101175.25;;;12.34;100.00
69630;BME280;56857;52.212;5.496;2023-03-16T13:58:26;101184.88;;;12.35;98.16